sensor_id;sensor_type;location;lat;lon;timestamp;pressure;altitude;pressure_sealevel;temperature;humidity
2401;BME280;1211;43.200;27.914;2023-02-16T00:00:46;101917.94;;;-1.06;100.00
2401;BME280;1211;43.200;27.914;2023-02-16T00:03:13;101608.00;;;-2.96;100.00
2401;BME280;1211;43.200;27.914;2023-02-16T00:05:42;101743.66;;;-2.39;100.00
2401;BME280;1211;43.200;27.914;2023-02-16T00:08:09;101589.66;;;-3.57;100.00
2401;BME280;1211;43.200;27.914;2023-02-16T00:10:37;101699.13;;;-2.86;100.00
2401;BME280;1211;43.200;27.914;2023-02-16T00:13:09;101688.72;;;-2.76;100.00
2401;BME280;1211;43.200;27.914;2023-02-16T00:15:57;101655.28;;;-3.00;100.00
2401;BME280;1211;43.200;27.914;2023-02-16T00:18:24;101836.00;;;-1.75;100.00
2401;BME280;1211;43.200;27.914;2023-02-16T00:20:52;101543.31;;;-3.59;100.00
2401;BME280;1211;43.200;27.914;2023-02-16T00:23:19;101579.63;;;-3.37;100.00
2401;BME280;1211;43.200;27.914;2023-02-16T00:25:46;101741.66;;;-2.51;100.00
2401;BME280;1211;43.200;27.914;2023-02-16T00:28:13;101569.84;;;-3.69;100.00
2401;BME280;1211;43.200;27.914;2023-02-16T00:30:41;101749.56;;;-2.56;100.00
2401;BME280;1211;43.200;27.914;2023-02-16T00:33:11;101697.41;;;-2.74;100.00
2401;BME280;1211;43.200;27.914;2023-02-16T00:35:39;101251.88;;;-5.49;100.00
2401;BME280;1211;43.200;27.914;2023-02-16T00:38:07;101416.81;;;-4.41;100.00
2401;BME280;1211;43.200;27.914;2023-02-16T00:40:34;101492.19;;;-4.03;100.00
2401;BME280;1211;43.200;27.914;2023-02-16T00:43:01;101711.81;;;-2.56;100.00
2401;BME280;1211;43.200;27.914;2023-02-16T00:45:28;101493.19;;;-3.98;100.00
2401;BME280;1211;43.200;27.914;2023-02-16T00:47:57;101810.38;;;-2.22;100.00
2401;BME280;1211;43.200;27.914;2023-02-16T00:50:25;101540.13;;;-3.87;100.00
2401;BME280;1211;43.200;27.914;2023-02-16T00:52:52;101720.25;;;-2.77;100.00
2401;BME280;1211;43.200;27.914;2023-02-16T00:55:23;101524.03;;;-4.00;100.00
2401;BME280;1211;43.200;27.914;2023-02-16T00:57:51;101530.31;;;-4.26;100.00
2401;BME280;1211;43.200;27.914;2023-02-16T01:00:18;101464.66;;;-4.76;100.00
2401;BME280;1211;43.200;27.914;2023-02-16T01:02:48;101681.34;;;-3.39;100.00
2401;BME280;1211;43.200;27.914;2023-02-16T01:05:15;101469.81;;;-4.94;100.00
2401;BME280;1211;43.200;27.914;2023-02-16T01:07:42;101701.91;;;-3.57;100.00
2401;BME280;1211;43.200;27.914;2023-02-16T01:10:28;101784.19;;;-3.10;100.00
2401;BME280;1211;43.200;27.914;2023-02-16T01:13:12;101636.97;;;-3.87;100.00
2401;BME280;1211;43.200;27.914;2023-02-16T01:15:39;101748.97;;;-3.02;100.00
2401;BME280;1211;43.200;27.914;2023-02-16T01:18:06;101627.03;;;-3.80;100.00
2401;BME280;1211;43.200;27.914;2023-02-16T01:20:33;101541.22;;;-4.15;100.00
2401;BME280;1211;43.200;27.914;2023-02-16T01:23:01;101468.50;;;-4.39;100.00
2401;BME280;1211;43.200;27.914;2023-02-16T01:25:30;101653.31;;;-3.24;100.00
2401;BME280;1211;43.200;27.914;2023-02-16T01:27:56;101761.53;;;-2.83;100.00
2401;BME280;1211;43.200;27.914;2023-02-16T01:30:24;101484.03;;;-4.48;100.00
2401;BME280;1211;43.200;27.914;2023-02-16T01:32:51;101640.38;;;-3.54;100.00
2401;BME280;1211;43.200;27.914;2023-02-16T01:35:18;101550.16;;;-4.21;100.00
2401;BME280;1211;43.200;27.914;2023-02-16T01:37:45;101745.41;;;-2.96;100.00
2401;BME280;1211;43.200;27.914;2023-02-16T01:40:15;101530.91;;;-4.31;100.00
2401;BME280;1211;43.200;27.914;2023-02-16T01:42:48;101620.59;;;-3.79;100.00
2401;BME280;1211;43.200;27.914;2023-02-16T01:45:17;101549.28;;;-4.15;100.00
2401;BME280;1211;43.200;27.914;2023-02-16T01:47:46;101773.31;;;-2.77;100.00
2401;BME280;1211;43.200;27.914;2023-02-16T01:50:16;101654.56;;;-3.27;100.00
2401;BME280;1211;43.200;27.914;2023-02-16T01:52:44;101604.22;;;-3.71;100.00
2401;BME280;1211;43.200;27.914;2023-02-16T01:55:15;101587.25;;;-3.71;100.00
2401;BME280;1211;43.200;27.914;2023-02-16T01:57:44;101783.81;;;-2.63;100.00
2401;BME280;1211;43.200;27.914;2023-02-16T02:00:15;101831.16;;;-2.29;100.00
2401;BME280;1211;43.200;27.914;2023-02-16T02:02:43;101494.38;;;-4.58;100.00
2401;BME280;1211;43.200;27.914;2023-02-16T02:05:17;101553.03;;;-4.16;100.00
2401;BME280;1211;43.200;27.914;2023-02-16T02:08:00;102010.38;;;-1.60;100.00
2401;BME280;1211;43.200;27.914;2023-02-16T02:10:30;101851.06;;;-2.30;100.00
2401;BME280;1211;43.200;27.914;2023-02-16T02:13:04;102007.47;;;-1.21;100.00
2401;BME280;1211;43.200;27.914;2023-02-16T02:15:33;101911.78;;;-1.70;100.00
2401;BME280;1211;43.200;27.914;2023-02-16T02:18:01;102062.00;;;-0.74;100.00
2401;BME280;1211;43.200;27.914;2023-02-16T02:20:30;101947.44;;;-1.61;100.00
2401;BME280;1211;43.200;27.914;2023-02-16T02:23:23;101758.78;;;-2.76;100.00
2401;BME280;1211;43.200;27.914;2023-02-16T02:39:42;101970.44;;;-1.90;100.00
2401;BME280;1211;43.200;27.914;2023-02-16T02:42:12;101577.88;;;-4.27;100.00
2401;BME280;1211;43.200;27.914;2023-02-16T02:44:45;101955.53;;;-1.99;100.00
2401;BME280;1211;43.200;27.914;2023-02-16T02:47:13;101826.75;;;-2.61;100.00
2401;BME280;1211;43.200;27.914;2023-02-16T02:49:40;101888.63;;;-2.28;100.00
2401;BME280;1211;43.200;27.914;2023-02-16T02:52:06;101791.03;;;-3.01;100.00
2401;BME280;1211;43.200;27.914;2023-02-16T02:54:35;101764.78;;;-3.25;100.00
2401;BME280;1211;43.200;27.914;2023-02-16T02:57:23;101534.28;;;-4.81;100.00
2401;BME280;1211;43.200;27.914;2023-02-16T03:00:22;101633.25;;;-3.99;100.00
2401;BME280;1211;43.200;27.914;2023-02-16T03:03:12;101591.47;;;-4.08;100.00
2401;BME280;1211;43.200;27.914;2023-02-16T03:05:40;101532.00;;;-4.51;100.00
2401;BME280;1211;43.200;27.914;2023-02-16T03:08:09;101634.72;;;-4.03;100.00
2401;BME280;1211;43.200;27.914;2023-02-16T03:10:40;101774.31;;;-3.23;100.00
2401;BME280;1211;43.200;27.914;2023-02-16T03:13:27;101477.88;;;-4.88;100.00
2401;BME280;1211;43.200;27.914;2023-02-16T03:15:57;101532.44;;;-4.68;100.00
2401;BME280;1211;43.200;27.914;2023-02-16T03:18:27;101501.03;;;-5.00;100.00
2401;BME280;1211;43.200;27.914;2023-02-16T03:21:11;102569.59;;;1.49;100.00
2401;BME280;1211;43.200;27.914;2023-02-16T03:23:56;102158.28;;;-0.98;100.00
2401;BME280;1211;43.200;27.914;2023-02-16T03:26:42;102315.00;;;0.04;100.00
2401;BME280;1211;43.200;27.914;2023-02-16T03:29:28;101590.06;;;-4.31;100.00
2401;BME280;1211;43.200;27.914;2023-02-16T03:31:55;101879.41;;;-2.59;100.00
2401;BME280;1211;43.200;27.914;2023-02-16T03:34:22;101250.28;;;-6.16;100.00
2401;BME280;1211;43.200;27.914;2023-02-16T03:36:51;102177.00;;;-0.65;100.00
2401;BME280;1211;43.200;27.914;2023-02-16T03:39:22;102625.47;;;2.06;100.00
2401;BME280;1211;43.200;27.914;2023-02-16T03:41:50;102488.28;;;1.36;100.00
2401;BME280;1211;43.200;27.914;2023-02-16T03:44:17;102440.44;;;1.17;100.00
2401;BME280;1211;43.200;27.914;2023-02-16T03:46:45;102400.97;;;0.71;100.00
2401;BME280;1211;43.200;27.914;2023-02-16T03:49:13;102533.72;;;1.65;100.00
2401;BME280;1211;43.200;27.914;2023-02-16T03:51:40;102328.16;;;0.25;100.00
2401;BME280;1211;43.200;27.914;2023-02-16T03:54:07;102341.41;;;0.40;100.00
2401;BME280;1211;43.200;27.914;2023-02-16T03:56:35;102336.09;;;0.27;100.00
2401;BME280;1211;43.200;27.914;2023-02-16T03:59:02;102155.66;;;-0.80;100.00
2401;BME280;1211;43.200;27.914;2023-02-16T04:01:29;102298.09;;;0.09;100.00
2401;BME280;1211;43.200;27.914;2023-02-16T04:03:57;102455.59;;;1.00;100.00
2401;BME280;1211;43.200;27.914;2023-02-16T04:06:24;102555.97;;;1.74;100.00
2401;BME280;1211;43.200;27.914;2023-02-16T04:08:50;102629.84;;;2.26;100.00
2401;BME280;1211;43.200;27.914;2023-02-16T04:11:18;101302.44;;;-5.79;100.00
2401;BME280;1211;43.200;27.914;2023-02-16T04:14:02;101702.09;;;-3.46;100.00
2401;BME280;1211;43.200;27.914;2023-02-16T04:16:29;101751.13;;;-3.30;100.00
2401;BME280;1211;43.200;27.914;2023-02-16T04:18:57;101710.16;;;-3.46;100.00
2401;BME280;1211;43.200;27.914;2023-02-16T04:21:24;101784.91;;;-3.61;100.00
2401;BME280;1211;43.200;27.914;2023-02-16T04:23:51;101399.41;;;-5.62;100.00
2401;BME280;1211;43.200;27.914;2023-02-16T04:26:18;101442.78;;;-5.39;100.00
2401;BME280;1211;43.200;27.914;2023-02-16T04:28:44;101512.19;;;-5.03;100.00
2401;BME280;1211;43.200;27.914;2023-02-16T04:31:12;101976.13;;;-2.04;100.00
2401;BME280;1211;43.200;27.914;2023-02-16T04:33:39;101975.09;;;-2.10;100.00
2401;BME280;1211;43.200;27.914;2023-02-16T04:36:07;102062.16;;;-1.77;100.00
2401;BME280;1211;43.200;27.914;2023-02-16T04:38:34;102321.56;;;-0.17;100.00
2401;BME280;1211;43.200;27.914;2023-02-16T04:41:01;101837.69;;;-3.34;100.00
2401;BME280;1211;43.200;27.914;2023-02-16T04:43:28;102186.19;;;-1.11;100.00
2401;BME280;1211;43.200;27.914;2023-02-16T04:45:56;102127.00;;;-1.32;100.00
2401;BME280;1211;43.200;27.914;2023-02-16T04:48:23;102532.44;;;0.94;100.00
2401;BME280;1211;43.200;27.914;2023-02-16T04:50:50;102174.41;;;-1.36;100.00
2401;BME280;1211;43.200;27.914;2023-02-16T04:53:18;102142.44;;;-1.33;100.00
2401;BME280;1211;43.200;27.914;2023-02-16T04:55:45;102675.03;;;2.02;100.00
2401;BME280;1211;43.200;27.914;2023-02-16T04:58:12;102696.13;;;2.06;100.00
2401;BME280;1211;43.200;27.914;2023-02-16T05:00:42;102674.28;;;2.13;100.00
2401;BME280;1211;43.200;27.914;2023-02-16T05:03:09;102675.06;;;2.20;100.00
2401;BME280;1211;43.200;27.914;2023-02-16T05:05:38;102680.03;;;1.80;100.00
2401;BME280;1211;43.200;27.914;2023-02-16T05:08:05;102684.75;;;1.67;100.00
2401;BME280;1211;43.200;27.914;2023-02-16T05:10:34;102682.63;;;1.69;100.00
2401;BME280;1211;43.200;27.914;2023-02-16T05:13:01;102691.72;;;1.81;100.00
2401;BME280;1211;43.200;27.914;2023-02-16T05:15:45;102698.72;;;1.95;100.00
2401;BME280;1211;43.200;27.914;2023-02-16T05:18:12;102691.63;;;1.94;100.00
2401;BME280;1211;43.200;27.914;2023-02-16T05:20:39;102689.16;;;1.86;100.00
2401;BME280;1211;43.200;27.914;2023-02-16T05:23:23;102647.16;;;1.63;100.00
2401;BME280;1211;43.200;27.914;2023-02-16T05:25:51;102683.16;;;2.02;100.00
2401;BME280;1211;43.200;27.914;2023-02-16T05:28:18;102683.31;;;1.89;100.00
2401;BME280;1211;43.200;27.914;2023-02-16T05:30:45;102710.19;;;2.22;100.00
2401;BME280;1211;43.200;27.914;2023-02-16T05:33:13;102090.69;;;-1.43;100.00
2401;BME280;1211;43.200;27.914;2023-02-16T05:35:40;102477.84;;;0.52;100.00
2401;BME280;1211;43.200;27.914;2023-02-16T05:38:08;102311.06;;;0.00;100.00
2401;BME280;1211;43.200;27.914;2023-02-16T05:40:34;102343.03;;;0.91;100.00
2401;BME280;1211;43.200;27.914;2023-02-16T05:43:07;102660.81;;;2.98;100.00
2401;BME280;1211;43.200;27.914;2023-02-16T05:45:37;102174.06;;;0.17;100.00
2401;BME280;1211;43.200;27.914;2023-02-16T05:48:04;102687.66;;;3.24;100.00
2401;BME280;1211;43.200;27.914;2023-02-16T05:50:32;102701.34;;;3.47;100.00
2401;BME280;1211;43.200;27.914;2023-02-16T05:52:59;102688.50;;;3.24;100.00
2401;BME280;1211;43.200;27.914;2023-02-16T05:55:26;102703.25;;;3.88;100.00
2401;BME280;1211;43.200;27.914;2023-02-16T05:57:52;102702.53;;;3.40;100.00
2401;BME280;1211;43.200;27.914;2023-02-16T06:00:21;102703.19;;;3.65;100.00
2401;BME280;1211;43.200;27.914;2023-02-16T06:02:48;102708.81;;;3.82;100.00
2401;BME280;1211;43.200;27.914;2023-02-16T06:05:15;102698.13;;;3.80;100.00
2401;BME280;1211;43.200;27.914;2023-02-16T06:07:41;102711.81;;;4.62;100.00
2401;BME280;1211;43.200;27.914;2023-02-16T06:10:09;102706.22;;;4.68;100.00
2401;BME280;1211;43.200;27.914;2023-02-16T06:12:36;102709.25;;;5.35;100.00
2401;BME280;1211;43.200;27.914;2023-02-16T06:15:03;102707.44;;;5.86;100.00
2401;BME280;1211;43.200;27.914;2023-02-16T06:17:31;102709.59;;;5.84;100.00
2401;BME280;1211;43.200;27.914;2023-02-16T06:19:58;102700.41;;;6.23;100.00
2401;BME280;1211;43.200;27.914;2023-02-16T06:22:25;102707.31;;;6.26;97.85
2401;BME280;1211;43.200;27.914;2023-02-16T06:24:52;102697.44;;;6.63;99.14
2401;BME280;1211;43.200;27.914;2023-02-16T06:27:19;102706.72;;;6.79;93.98
2401;BME280;1211;43.200;27.914;2023-02-16T06:29:45;102693.44;;;7.14;95.67
2401;BME280;1211;43.200;27.914;2023-02-16T06:32:12;102708.81;;;6.33;95.94
2401;BME280;1211;43.200;27.914;2023-02-16T06:34:40;102699.22;;;6.52;95.44
2401;BME280;1211;43.200;27.914;2023-02-16T06:37:07;102715.13;;;6.94;91.67
2401;BME280;1211;43.200;27.914;2023-02-16T06:39:34;102702.88;;;6.80;91.48
2401;BME280;1211;43.200;27.914;2023-02-16T06:42:00;102710.81;;;7.47;91.26
2401;BME280;1211;43.200;27.914;2023-02-16T06:44:27;102708.47;;;7.87;87.06
2401;BME280;1211;43.200;27.914;2023-02-16T06:46:54;102699.81;;;7.41;91.26
2401;BME280;1211;43.200;27.914;2023-02-16T06:49:20;102708.75;;;8.17;89.66
2401;BME280;1211;43.200;27.914;2023-02-16T06:51:48;102715.31;;;8.53;84.60
2401;BME280;1211;43.200;27.914;2023-02-16T06:54:15;102719.34;;;9.60;82.78
2401;BME280;1211;43.200;27.914;2023-02-16T06:56:42;102709.53;;;8.97;81.84
2401;BME280;1211;43.200;27.914;2023-02-16T06:59:09;102706.75;;;8.40;83.35
2401;BME280;1211;43.200;27.914;2023-02-16T07:01:36;102696.69;;;9.18;82.15
2401;BME280;1211;43.200;27.914;2023-02-16T07:04:03;102705.13;;;8.96;84.32
2401;BME280;1211;43.200;27.914;2023-02-16T07:06:29;102707.22;;;9.51;78.92
2401;BME280;1211;43.200;27.914;2023-02-16T07:08:58;102700.38;;;9.59;78.47
2401;BME280;1211;43.200;27.914;2023-02-16T07:11:25;102698.44;;;9.74;78.26
2401;BME280;1211;43.200;27.914;2023-02-16T07:13:51;102698.09;;;9.25;80.38
2401;BME280;1211;43.200;27.914;2023-02-16T07:16:18;102691.03;;;9.65;78.68
2401;BME280;1211;43.200;27.914;2023-02-16T07:18:45;102697.34;;;8.83;79.25
2401;BME280;1211;43.200;27.914;2023-02-16T07:21:12;102697.16;;;9.04;80.30
2401;BME280;1211;43.200;27.914;2023-02-16T07:23:39;102680.31;;;9.78;76.57
2401;BME280;1211;43.200;27.914;2023-02-16T07:26:07;102674.91;;;10.93;72.22
2401;BME280;1211;43.200;27.914;2023-02-16T07:28:33;102680.22;;;11.34;68.52
2401;BME280;1211;43.200;27.914;2023-02-16T07:31:04;102691.00;;;12.66;63.77
2401;BME280;1211;43.200;27.914;2023-02-16T07:33:31;102678.16;;;12.99;59.80
2401;BME280;1211;43.200;27.914;2023-02-16T07:35:58;102680.22;;;12.88;60.68
2401;BME280;1211;43.200;27.914;2023-02-16T07:38:25;102679.44;;;13.06;59.58
2401;BME280;1211;43.200;27.914;2023-02-16T07:40:51;102680.69;;;12.48;57.49
2401;BME280;1211;43.200;27.914;2023-02-16T07:43:19;102669.50;;;12.05;59.63
2401;BME280;1211;43.200;27.914;2023-02-16T07:45:46;102677.16;;;13.13;57.95
2401;BME280;1211;43.200;27.914;2023-02-16T07:48:13;102668.81;;;14.94;53.72
2401;BME280;1211;43.200;27.914;2023-02-16T07:50:40;102675.59;;;14.74;51.71
2401;BME280;1211;43.200;27.914;2023-02-16T07:53:06;102668.25;;;15.69;50.55
2401;BME280;1211;43.200;27.914;2023-02-16T07:55:37;102669.75;;;15.53;48.46
2401;BME280;1211;43.200;27.914;2023-02-16T07:58:04;102671.88;;;16.54;48.64
2401;BME280;1211;43.200;27.914;2023-02-16T08:00:32;102675.38;;;17.07;46.99
2401;BME280;1211;43.200;27.914;2023-02-16T08:02:59;102675.75;;;16.66;46.99
2401;BME280;1211;43.200;27.914;2023-02-16T08:05:26;102679.28;;;16.27;47.77
2401;BME280;1211;43.200;27.914;2023-02-16T08:07:53;102674.00;;;15.73;46.61
2401;BME280;1211;43.200;27.914;2023-02-16T08:10:19;102627.75;;;14.55;49.23
2401;BME280;1211;43.200;27.914;2023-02-16T08:12:46;102630.31;;;15.87;48.07
2401;BME280;1211;43.200;27.914;2023-02-16T08:15:14;102661.94;;;16.30;47.29
2401;BME280;1211;43.200;27.914;2023-02-16T08:17:42;102549.66;;;15.78;45.80
2401;BME280;1211;43.200;27.914;2023-02-16T08:20:09;102609.22;;;17.04;44.33
2401;BME280;1211;43.200;27.914;2023-02-16T08:22:35;102614.72;;;18.63;42.85
2401;BME280;1211;43.200;27.914;2023-02-16T08:25:02;102666.44;;;17.53;43.13
2401;BME280;1211;43.200;27.914;2023-02-16T08:27:29;102676.56;;;16.67;44.50
2401;BME280;1211;43.200;27.914;2023-02-16T08:29:56;102668.91;;;17.81;44.29
2401;BME280;1211;43.200;27.914;2023-02-16T08:32:22;102674.84;;;17.62;43.10
2401;BME280;1211;43.200;27.914;2023-02-16T08:34:50;102566.16;;;17.19;42.95
2401;BME280;1211;43.200;27.914;2023-02-16T08:37:17;102676.31;;;17.85;42.87
2401;BME280;1211;43.200;27.914;2023-02-16T08:39:44;102662.81;;;18.68;41.77
2401;BME280;1211;43.200;27.914;2023-02-16T08:42:10;102638.38;;;18.95;40.65
2401;BME280;1211;43.200;27.914;2023-02-16T08:44:38;102427.78;;;17.66;40.39
2401;BME280;1211;43.200;27.914;2023-02-16T08:47:06;102610.03;;;16.96;42.64
2401;BME280;1211;43.200;27.914;2023-02-16T08:49:33;102522.00;;;15.51;44.63
2401;BME280;1211;43.200;27.914;2023-02-16T08:52:01;102578.78;;;18.15;41.99
2401;BME280;1211;43.200;27.914;2023-02-16T08:54:28;102559.91;;;18.49;40.22
2401;BME280;1211;43.200;27.914;2023-02-16T09:09:18;102670.88;;;20.36;37.11
2401;BME280;1211;43.200;27.914;2023-02-16T09:11:45;102667.78;;;20.62;37.44
2401;BME280;1211;43.200;27.914;2023-02-16T09:14:12;101785.84;;;15.73;35.90
2401;BME280;1211;43.200;27.914;2023-02-16T09:19:41;101566.53;;;15.23;35.85
2401;BME280;1211;43.200;27.914;2023-02-16T09:22:09;101141.28;;;13.79;34.05
2401;BME280;1211;43.200;27.914;2023-02-16T09:24:37;101162.47;;;13.12;34.88
2401;BME280;1211;43.200;27.914;2023-02-16T09:27:04;101091.31;;;14.41;32.88
2401;BME280;1211;43.200;27.914;2023-02-16T09:29:31;101201.31;;;15.71;31.86
2401;BME280;1211;43.200;27.914;2023-02-16T09:31:58;101232.78;;;13.82;33.14
2401;BME280;1211;43.200;27.914;2023-02-16T09:34:25;101017.56;;;11.36;33.54
2401;BME280;1211;43.200;27.914;2023-02-16T09:36:53;100969.78;;;12.75;31.92
2401;BME280;1211;43.200;27.914;2023-02-16T09:39:20;100505.97;;;5.22;34.96
2401;BME280;1211;43.200;27.914;2023-02-16T09:41:55;100004.53;;;5.53;32.73
2401;BME280;1211;43.200;27.914;2023-02-16T09:44:25;100619.31;;;10.57;32.04
2401;BME280;1211;43.200;27.914;2023-02-16T09:46:55;101347.31;;;16.08;31.40
2401;BME280;1211;43.200;27.914;2023-02-16T09:49:25;101095.25;;;13.74;31.15
2401;BME280;1211;43.200;27.914;2023-02-16T09:51:56;100742.78;;;10.47;30.83
2401;BME280;1211;43.200;27.914;2023-02-16T09:54:31;100884.13;;;11.28;31.94
2401;BME280;1211;43.200;27.914;2023-02-16T09:57:00;100859.19;;;13.16;30.19
2401;BME280;1211;43.200;27.914;2023-02-16T09:59:35;100047.59;;;7.49;30.00
2401;BME280;1211;43.200;27.914;2023-02-16T10:02:12;99962.97;;;2.61;33.83
2401;BME280;1211;43.200;27.914;2023-02-16T10:04:47;99627.31;;;1.90;31.53
2401;BME280;1211;43.200;27.914;2023-02-16T10:07:21;99626.25;;;0.78;32.55
2401;BME280;1211;43.200;27.914;2023-02-16T10:09:50;100039.78;;;1.76;33.33
2401;BME280;1211;43.200;27.914;2023-02-16T10:12:21;100777.56;;;9.82;30.49
2401;BME280;1211;43.200;27.914;2023-02-16T10:14:50;99309.63;;;1.95;28.96
2401;BME280;1211;43.200;27.914;2023-02-16T10:17:18;98664.69;;;-2.70;28.24
2401;BME280;1211;43.200;27.914;2023-02-16T10:19:52;100334.19;;;7.67;29.50
2401;BME280;1211;43.200;27.914;2023-02-16T10:22:23;100245.38;;;8.02;28.19
2401;BME280;1211;43.200;27.914;2023-02-16T10:34:21;99962.69;;;1.77;30.65
2401;BME280;1211;43.200;27.914;2023-02-16T10:37:02;100066.00;;;2.81;30.36
2401;BME280;1211;43.200;27.914;2023-02-16T10:39:34;100254.94;;;5.80;30.44
2401;BME280;1211;43.200;27.914;2023-02-16T11:28:30;100517.69;;;0.43;88.96
2401;BME280;1211;43.200;27.914;2023-02-16T11:30:59;99970.25;;;-3.55;100.00
2401;BME280;1211;43.200;27.914;2023-02-16T11:33:26;100073.03;;;-2.77;98.83
2401;BME280;1211;43.200;27.914;2023-02-16T11:35:54;100047.97;;;-2.78;95.65
2401;BME280;1211;43.200;27.914;2023-02-16T11:38:28;100817.13;;;1.55;100.00
2401;BME280;1211;43.200;27.914;2023-02-16T11:40:56;100828.16;;;0.86;100.00
2401;BME280;1211;43.200;27.914;2023-02-16T11:43:25;100791.19;;;1.17;100.00
2401;BME280;1211;43.200;27.914;2023-02-16T11:45:59;100955.66;;;2.58;100.00
2401;BME280;1211;43.200;27.914;2023-02-16T11:48:27;100870.91;;;1.73;100.00
2401;BME280;1211;43.200;27.914;2023-02-16T11:50:56;101143.53;;;3.64;100.00
2401;BME280;1211;43.200;27.914;2023-02-16T11:53:23;100896.13;;;2.51;100.00
2401;BME280;1211;43.200;27.914;2023-02-16T11:55:51;101041.09;;;2.82;100.00
2401;BME280;1211;43.200;27.914;2023-02-16T11:58:34;100336.16;;;-1.22;100.00
2401;BME280;1211;43.200;27.914;2023-02-16T12:01:04;100788.56;;;1.32;100.00
2401;BME280;1211;43.200;27.914;2023-02-16T12:03:39;101672.09;;;7.26;100.00
2401;BME280;1211;43.200;27.914;2023-02-16T12:06:16;100686.00;;;1.29;88.07
2401;BME280;1211;43.200;27.914;2023-02-16T12:08:51;102143.09;;;9.91;86.22
2401;BME280;1211;43.200;27.914;2023-02-16T12:11:24;102062.56;;;9.52;84.63
2401;BME280;1211;43.200;27.914;2023-02-16T12:13:56;101626.91;;;7.63;81.78
2401;BME280;1211;43.200;27.914;2023-02-16T12:16:31;101765.47;;;8.62;78.88
2401;BME280;1211;43.200;27.914;2023-02-16T12:19:05;101730.97;;;7.83;78.08
2401;BME280;1211;43.200;27.914;2023-02-16T12:21:35;101742.78;;;8.17;76.23
2401;BME280;1211;43.200;27.914;2023-02-16T12:24:05;101731.72;;;8.27;80.44
2401;BME280;1211;43.200;27.914;2023-02-16T12:26:39;101823.56;;;9.32;79.95
2401;BME280;1211;43.200;27.914;2023-02-16T12:29:12;101763.16;;;8.74;81.11
2401;BME280;1211;43.200;27.914;2023-02-16T12:31:52;101957.34;;;10.18;77.90
2401;BME280;1211;43.200;27.914;2023-02-16T12:34:24;101837.47;;;9.40;76.72
2401;BME280;1211;43.200;27.914;2023-02-16T22:14:52;102130.97;;;5.35;100.00
2401;BME280;1211;43.200;27.914;2023-02-16T22:17:19;102125.47;;;5.09;100.00
2401;BME280;1211;43.200;27.914;2023-02-16T22:19:47;102119.38;;;5.02;100.00
2401;BME280;1211;43.200;27.914;2023-02-16T22:22:14;102120.59;;;5.11;100.00
2401;BME280;1211;43.200;27.914;2023-02-16T22:30:51;102104.75;;;5.13;100.00
2401;BME280;1211;43.200;27.914;2023-02-16T22:33:18;102103.81;;;5.24;100.00
2401;BME280;1211;43.200;27.914;2023-02-16T22:35:45;102102.97;;;4.96;100.00
2401;BME280;1211;43.200;27.914;2023-02-16T22:38:12;102104.75;;;4.86;100.00
2401;BME280;1211;43.200;27.914;2023-02-16T22:40:39;102095.09;;;5.00;100.00
2401;BME280;1211;43.200;27.914;2023-02-16T22:43:06;102091.59;;;5.05;100.00
2401;BME280;1211;43.200;27.914;2023-02-16T22:45:33;102097.09;;;5.10;100.00
2401;BME280;1211;43.200;27.914;2023-02-16T22:48:01;102090.59;;;5.16;100.00
2401;BME280;1211;43.200;27.914;2023-02-16T22:50:28;102096.13;;;5.21;100.00
2401;BME280;1211;43.200;27.914;2023-02-16T23:14:37;102075.84;;;4.90;100.00
2401;BME280;1211;43.200;27.914;2023-02-16T23:17:04;102075.94;;;4.95;100.00
2401;BME280;1211;43.200;27.914;2023-02-16T23:19:30;102074.34;;;4.99;100.00
2401;BME280;1211;43.200;27.914;2023-02-16T23:21:57;102057.41;;;4.75;100.00
2401;BME280;1211;43.200;27.914;2023-02-16T23:24:24;102064.63;;;4.86;100.00
2401;BME280;1211;43.200;27.914;2023-02-16T23:26:51;102063.50;;;4.82;100.00
2401;BME280;1211;43.200;27.914;2023-02-16T23:29:18;102066.09;;;4.72;100.00
2401;BME280;1211;43.200;27.914;2023-02-16T23:31:46;102065.50;;;4.65;100.00
2401;BME280;1211;43.200;27.914;2023-02-16T23:34:13;102066.75;;;4.57;100.00
2401;BME280;1211;43.200;27.914;2023-02-16T23:36:41;102061.69;;;4.44;100.00
2401;BME280;1211;43.200;27.914;2023-02-16T23:39:09;102049.19;;;4.27;100.00
2401;BME280;1211;43.200;27.914;2023-02-16T23:41:36;102060.56;;;4.40;100.00
2401;BME280;1211;43.200;27.914;2023-02-16T23:44:03;102047.97;;;4.61;100.00
2401;BME280;1211;43.200;27.914;2023-02-16T23:46:29;102059.16;;;4.60;100.00
2401;BME280;1211;43.200;27.914;2023-02-16T23:48:58;102057.31;;;4.65;100.00
2401;BME280;1211;43.200;27.914;2023-02-16T23:51:25;102054.28;;;4.40;100.00
2401;BME280;1211;43.200;27.914;2023-02-16T23:53:52;101655.78;;;2.05;100.00
2401;BME280;1211;43.200;27.914;2023-02-16T23:56:19;102045.81;;;4.63;100.00
2401;BME280;1211;43.200;27.914;2023-02-16T23:58:46;102047.38;;;4.54;100.00
